Time,TemperatureF,DewpointF,PressureIn,WindDirection,WindDirectionDegrees,WindSpeedMPH,WindSpeedGustMPH,Humidity,HourlyPrecipIn,Conditions,Clouds,dailyrainin,SoftwareType,DateUTC
2013-06-26 00:03:00,73.0,72.1,29.75,SE,135,1.0,4.0,97,0.00,,,0.00,meteohub,2013-06-26 05:03:00,
2013-06-26 00:08:00,73.0,72.1,29.74,SE,130,3.0,5.0,97,0.00,,,0.00,meteohub,2013-06-26 05:08:00,
2013-06-26 00:13:00,73.0,72.1,29.74,SSE,147,3.0,5.0,97,0.00,,,0.00,meteohub,2013-06-26 05:13:00,
2013-06-26 00:18:00,72.9,72.0,29.74,SSE,149,4.0,5.0,97,0.00,,,0.00,meteohub,2013-06-26 05:18:00,
2013-06-26 00:23:00,72.9,72.0,29.74,SE,142,4.0,5.0,97,0.00,,,0.00,meteohub,2013-06-26 05:23:00,
2013-06-26 00:28:00,72.9,72.0,29.73,SSE,155,3.0,5.0,97,0.00,,,0.00,meteohub,2013-06-26 05:28:00,
2013-06-26 00:33:00,72.7,71.8,29.73,SE,145,4.0,6.0,97,0.00,,,0.00,meteohub,2013-06-26 05:33:00,
2013-06-26 00:38:00,72.7,71.8,29.73,SE,131,5.0,6.0,97,0.00,,,0.00,meteohub,2013-06-26 05:38:00,
2013-06-26 00:43:00,72.5,71.6,29.74,SE,138,5.0,6.0,97,0.00,,,0.00,meteohub,2013-06-26 05:43:00,
2013-06-26 00:48:00,72.5,71.6,29.73,SE,135,5.0,6.0,97,0.00,,,0.00,meteohub,2013-06-26 05:48:00,
2013-06-26 00:53:00,72.3,71.4,29.74,SE,131,5.0,6.0,97,0.00,,,0.00,meteohub,2013-06-26 05:53:00,
2013-06-26 00:58:00,72.3,71.4,29.74,SSE,149,5.0,6.0,97,0.00,,,0.00,meteohub,2013-06-26 05:58:00,
2013-06-26 01:03:00,72.5,71.2,29.73,SSE,168,5.0,6.0,96,0.00,,,0.00,meteohub,2013-06-26 06:03:00,
2013-06-26 01:08:00,72.5,71.2,29.73,SE,141,3.0,6.0,96,0.00,,,0.00,meteohub,2013-06-26 06:08:00,
2013-06-26 01:13:00,72.7,71.4,29.73,SE,144,4.0,6.0,96,0.00,,,0.00,meteohub,2013-06-26 06:13:00,
2013-06-26 01:18:00,72.7,71.4,29.73,SE,131,4.0,6.0,96,0.00,,,0.00,meteohub,2013-06-26 06:18:00,
2013-06-26 01:23:00,72.5,71.2,29.73,SE,138,4.0,6.0,96,0.00,,,0.00,meteohub,2013-06-26 06:23:00,
2013-06-26 01:28:00,72.3,71.1,29.73,SE,126,4.0,5.0,96,0.00,,,0.00,meteohub,2013-06-26 06:28:00,
2013-06-26 01:33:00,72.3,71.1,29.73,SSE,160,1.0,5.0,96,0.00,,,0.00,meteohub,2013-06-26 06:33:00,
2013-06-26 01:38:00,72.3,71.1,29.73,South,176,2.0,4.0,96,0.00,,,0.00,meteohub,2013-06-26 06:38:00,
2013-06-26 01:43:00,72.3,71.1,29.73,SSE,154,4.0,4.0,96,0.00,,,0.00,meteohub,2013-06-26 06:43:00,
2013-06-26 01:48:00,72.5,71.2,29.73,SE,146,4.0,5.0,96,0.00,,,0.00,meteohub,2013-06-26 06:48:00,
2013-06-26 01:53:00,72.7,71.4,29.72,SE,133,4.0,5.0,96,0.00,,,0.00,meteohub,2013-06-26 06:53:00,
2013-06-26 01:58:00,72.7,71.2,29.73,SSE,158,4.0,7.0,95,0.00,,,0.00,meteohub,2013-06-26 06:58:00,
2013-06-26 02:03:00,72.5,71.1,29.73,South,179,2.0,7.0,95,0.00,,,0.00,meteohub,2013-06-26 07:03:00,
2013-06-26 02:08:00,72.3,70.9,29.73,SSE,162,3.0,7.0,95,0.00,,,0.00,meteohub,2013-06-26 07:08:00,
2013-06-26 02:13:00,72.3,70.9,29.72,SW,216,2.0,6.0,95,0.00,,,0.00,meteohub,2013-06-26 07:13:00,
2013-06-26 02:18:00,72.3,70.9,29.72,South,176,2.0,7.0,95,0.00,,,0.00,meteohub,2013-06-26 07:18:00,
2013-06-26 02:23:00,72.3,70.9,29.71,South,175,2.0,7.0,95,0.00,,,0.00,meteohub,2013-06-26 07:23:00,
2013-06-26 02:28:00,72.5,71.2,29.71,South,173,4.0,7.0,96,0.00,,,0.00,meteohub,2013-06-26 07:28:00,
2013-06-26 02:33:00,72.7,71.4,29.71,SW,225,1.0,6.0,96,0.00,,,0.00,meteohub,2013-06-26 07:33:00,
2013-06-26 02:38:00,72.7,71.4,29.71,SSE,156,3.0,6.0,96,0.00,,,0.00,meteohub,2013-06-26 07:38:00,
2013-06-26 02:43:00,72.7,71.4,29.71,SE,138,4.0,6.0,96,0.00,,,0.00,meteohub,2013-06-26 07:43:00,
2013-06-26 02:48:00,72.7,71.4,29.71,SSE,161,3.0,6.0,96,0.00,,,0.00,meteohub,2013-06-26 07:48:00,
2013-06-26 02:53:00,72.7,71.4,29.71,SSE,159,2.0,6.0,96,0.00,,,0.00,meteohub,2013-06-26 07:53:00,
2013-06-26 02:58:00,72.7,71.4,29.70,SSE,154,3.0,6.0,96,0.00,,,0.00,meteohub,2013-06-26 07:58:00,
2013-06-26 03:03:00,72.7,71.4,29.69,SSE,155,3.0,5.0,96,0.00,,,0.00,meteohub,2013-06-26 08:03:00,
2013-06-26 03:08:00,72.7,71.2,29.69,SSE,156,2.0,4.0,95,0.00,,,0.00,meteohub,2013-06-26 08:08:00,
2013-06-26 03:13:00,72.7,71.4,29.68,SE,130,3.0,6.0,96,0.00,,,0.00,meteohub,2013-06-26 08:13:00,
2013-06-26 03:18:00,72.5,71.2,29.69,South,178,2.0,6.0,96,0.00,,,0.00,meteohub,2013-06-26 08:18:00,
2013-06-26 03:23:00,72.3,71.1,29.68,SSW,202,3.0,4.0,96,0.00,,,0.00,meteohub,2013-06-26 08:23:00,
2013-06-26 03:29:00,72.7,71.4,29.69,SE,145,3.0,7.0,96,0.00,,,0.00,meteohub,2013-06-26 08:29:00,
2013-06-26 03:34:00,72.5,71.1,29.68,SW,217,2.0,7.0,95,0.00,,,0.00,meteohub,2013-06-26 08:34:00,
2013-06-26 03:39:00,72.7,71.2,29.68,SW,218,3.0,7.0,95,0.00,,,0.00,meteohub,2013-06-26 08:39:00,
2013-06-26 03:44:00,72.7,71.2,29.68,SSW,209,3.0,5.0,95,0.00,,,0.00,meteohub,2013-06-26 08:44:00,
2013-06-26 03:49:00,72.7,71.2,29.68,SSE,164,3.0,5.0,95,0.00,,,0.00,meteohub,2013-06-26 08:49:00,
2013-06-26 03:54:00,72.7,71.2,29.67,SE,138,4.0,5.0,95,0.00,,,0.00,meteohub,2013-06-26 08:54:00,
2013-06-26 03:59:00,72.5,71.1,29.66,SSE,168,4.0,5.0,95,0.00,,,0.00,meteohub,2013-06-26 08:59:00,
2013-06-26 04:04:00,72.3,70.9,29.65,SSW,212,2.0,6.0,95,0.00,,,0.00,meteohub,2013-06-26 09:04:00,
2013-06-26 04:09:00,72.1,70.7,29.66,SW,225,0.0,6.0,95,0.00,,,0.00,meteohub,2013-06-26 09:09:00,
2013-06-26 04:14:00,72.1,70.7,29.68,WSW,249,0.0,6.0,95,0.00,,,0.00,meteohub,2013-06-26 09:14:00,
2013-06-26 04:19:00,72.0,70.5,29.69,West,274,2.0,5.0,95,0.00,,,0.00,meteohub,2013-06-26 09:19:00,
2013-06-26 04:24:00,72.0,70.5,29.69,West,281,1.0,5.0,95,0.00,,,0.00,meteohub,2013-06-26 09:24:00,
2013-06-26 04:29:00,72.0,70.5,29.68,West,280,0.0,2.0,95,0.00,,,0.00,meteohub,2013-06-26 09:29:00,
2013-06-26 04:34:00,72.0,70.5,29.68,West,279,0.0,2.0,95,0.00,,,0.00,meteohub,2013-06-26 09:34:00,
2013-06-26 04:39:00,71.8,70.5,29.68,SE,127,2.0,2.0,96,0.00,,,0.00,meteohub,2013-06-26 09:39:00,
2013-06-26 04:44:00,71.8,70.5,29.68,SSE,147,2.0,3.0,96,0.00,,,0.00,meteohub,2013-06-26 09:44:00,
2013-06-26 04:49:00,71.6,70.3,29.68,South,191,2.0,3.0,96,0.00,,,0.00,meteohub,2013-06-26 09:49:00,
2013-06-26 04:54:00,71.6,70.3,29.68,South,187,1.0,3.0,96,0.00,,,0.00,meteohub,2013-06-26 09:54:00,
2013-06-26 04:59:00,71.8,70.5,29.68,SE,127,1.0,3.0,96,0.00,,,0.00,meteohub,2013-06-26 09:59:00,
2013-06-26 05:04:00,71.8,70.5,29.69,East,83,3.0,4.0,96,0.00,,,0.00,meteohub,2013-06-26 10:04:00,
2013-06-26 05:09:00,71.8,70.5,29.68,NE,54,3.0,4.0,96,0.00,,,0.00,meteohub,2013-06-26 10:09:00,
2013-06-26 05:14:00,71.8,70.5,29.68,ESE,103,1.0,5.0,96,0.03,,,0.00,meteohub,2013-06-26 10:14:00,
2013-06-26 05:19:00,71.8,70.5,29.69,SE,127,4.0,5.0,96,0.07,,,0.07,meteohub,2013-06-26 10:19:00,
2013-06-26 05:24:00,71.8,70.5,29.69,ESE,120,6.0,6.0,96,0.08,,,0.08,meteohub,2013-06-26 10:24:00,
2013-06-26 05:29:00,71.8,70.5,29.69,East,85,6.0,8.0,96,0.08,,,0.08,meteohub,2013-06-26 10:29:00,
2013-06-26 05:34:00,70.5,67.8,29.68,ESE,123,10.0,11.0,91,0.08,,,0.08,meteohub,2013-06-26 10:34:00,
2013-06-26 05:39:00,68.4,65.3,29.68,South,171,8.0,14.0,90,0.24,,,0.24,meteohub,2013-06-26 10:39:00,
2013-06-26 05:44:00,67.6,65.5,29.68,ESE,117,13.0,24.0,93,0.26,,,0.26,meteohub,2013-06-26 10:44:00,
2013-06-26 05:49:00,67.8,65.7,29.69,East,90,6.0,24.0,93,0.28,,,0.28,meteohub,2013-06-26 10:49:00,
2013-06-26 05:54:00,68.5,65.8,29.71,ESE,111,11.0,24.0,91,0.28,,,0.28,meteohub,2013-06-26 10:54:00,
2013-06-26 05:59:00,68.5,66.4,29.71,East,88,4.0,22.0,93,0.28,,,0.28,meteohub,2013-06-26 10:59:00,
2013-06-26 06:04:00,68.4,66.2,29.70,SE,133,8.0,22.0,93,0.28,,,0.28,meteohub,2013-06-26 11:04:00,
2013-06-26 06:09:00,68.5,66.2,29.70,SE,142,14.0,22.0,92,0.28,,,0.28,meteohub,2013-06-26 11:09:00,
2013-06-26 06:14:00,68.2,66.0,29.70,East,84,4.0,14.0,93,0.24,,,0.28,meteohub,2013-06-26 11:14:00,
2013-06-26 06:19:00,67.8,66.0,29.72,ENE,65,5.0,16.0,94,0.20,,,0.28,meteohub,2013-06-26 11:19:00,
2013-06-26 06:24:00,67.8,66.0,29.73,ESE,118,8.0,16.0,94,0.20,,,0.28,meteohub,2013-06-26 11:24:00,
2013-06-26 06:29:00,67.6,65.8,29.73,East,88,7.0,16.0,94,0.20,,,0.28,meteohub,2013-06-26 11:29:00,
2013-06-26 06:34:00,67.5,65.7,29.72,East,97,5.0,13.0,94,0.13,,,0.28,meteohub,2013-06-26 11:34:00,
2013-06-26 06:39:00,67.3,65.5,29.72,NE,41,2.0,13.0,94,0.03,,,0.28,meteohub,2013-06-26 11:39:00,
2013-06-26 06:44:00,66.9,65.1,29.71,East,88,6.0,13.0,94,0.01,,,0.28,meteohub,2013-06-26 11:44:00,
2013-06-26 06:49:00,66.7,65.3,29.72,ENE,76,4.0,13.0,95,0.01,,,0.29,meteohub,2013-06-26 11:49:00,
2013-06-26 06:54:00,66.4,64.9,29.72,SE,126,4.0,11.0,95,0.03,,,0.31,meteohub,2013-06-26 11:54:00,
2013-06-26 06:59:00,66.0,64.6,29.72,SSE,158,9.0,11.0,95,0.04,,,0.32,meteohub,2013-06-26 11:59:00,
2013-06-26 07:04:00,66.0,64.6,29.72,SE,128,10.0,15.0,95,0.04,,,0.32,meteohub,2013-06-26 12:04:00,
2013-06-26 07:10:00,65.8,64.4,29.73,East,88,4.0,15.0,95,0.04,,,0.32,meteohub,2013-06-26 12:10:00,
2013-06-26 07:15:00,65.8,64.4,29.72,East,100,2.0,15.0,95,0.04,,,0.32,meteohub,2013-06-26 12:15:00,
2013-06-26 07:20:00,66.0,64.6,29.72,SE,138,0.0,13.0,95,0.04,,,0.32,meteohub,2013-06-26 12:20:00,
2013-06-26 07:25:00,66.0,64.2,29.72,SE,126,7.0,12.0,94,0.05,,,0.33,meteohub,2013-06-26 12:25:00,
2013-06-26 07:30:00,66.0,64.2,29.72,SSE,163,6.0,10.0,94,0.05,,,0.33,meteohub,2013-06-26 12:30:00,
2013-06-26 07:35:00,65.8,64.0,29.72,ESE,113,7.0,12.0,94,0.06,,,0.34,meteohub,2013-06-26 12:35:00,
2013-06-26 07:40:00,65.8,64.4,29.72,SSE,160,7.0,12.0,95,0.07,,,0.34,meteohub,2013-06-26 12:40:00,
2013-06-26 07:45:00,65.8,64.4,29.72,SE,133,8.0,12.0,95,0.08,,,0.36,meteohub,2013-06-26 12:45:00,
2013-06-26 07:50:00,65.8,64.4,29.73,SSE,150,7.0,11.0,95,0.08,,,0.37,meteohub,2013-06-26 12:50:00,
2013-06-26 07:55:00,65.8,64.4,29.73,ESE,119,6.0,10.0,95,0.06,,,0.37,meteohub,2013-06-26 12:55:00,
2013-06-26 08:00:00,65.8,64.0,29.73,SE,126,8.0,11.0,94,0.06,,,0.38,meteohub,2013-06-26 13:00:00,
2013-06-26 08:05:00,65.8,64.0,29.73,SSE,155,10.0,11.0,94,0.06,,,0.38,meteohub,2013-06-26 13:05:00,
2013-06-26 08:10:00,65.8,64.0,29.72,SE,139,9.0,11.0,94,0.06,,,0.38,meteohub,2013-06-26 13:10:00,
2013-06-26 08:15:00,65.8,64.0,29.72,SSE,149,8.0,12.0,94,0.06,,,0.38,meteohub,2013-06-26 13:15:00,
2013-06-26 08:20:00,66.0,64.2,29.72,ESE,104,3.0,12.0,94,0.06,,,0.38,meteohub,2013-06-26 13:20:00,
2013-06-26 08:25:00,66.4,64.6,29.72,ESE,118,5.0,11.0,94,0.05,,,0.38,meteohub,2013-06-26 13:25:00,
2013-06-26 08:30:00,66.7,64.9,29.72,East,81,6.0,11.0,94,0.05,,,0.38,meteohub,2013-06-26 13:30:00,
2013-06-26 08:35:00,67.1,64.9,29.72,NE,54,2.0,10.0,93,0.04,,,0.38,meteohub,2013-06-26 13:35:00,
2013-06-26 08:40:00,67.5,65.7,29.71,SW,234,2.0,10.0,94,0.03,,,0.38,meteohub,2013-06-26 13:40:00,
2013-06-26 08:45:00,68.0,65.8,29.72,SSE,149,3.0,10.0,93,0.01,,,0.38,meteohub,2013-06-26 13:45:00,
2013-06-26 08:50:00,68.2,65.8,29.71,SSE,161,6.0,8.0,92,0.01,,,0.38,meteohub,2013-06-26 13:50:00,
2013-06-26 08:55:00,68.4,66.2,29.71,SSE,148,6.0,8.0,93,0.00,,,0.38,meteohub,2013-06-26 13:55:00,
2013-06-26 09:00:00,68.2,65.8,29.70,SE,145,6.0,8.0,92,0.00,,,0.38,meteohub,2013-06-26 14:00:00,
2013-06-26 09:05:00,68.4,66.2,29.70,ESE,110,9.0,9.0,93,0.00,,,0.38,meteohub,2013-06-26 14:05:00,
2013-06-26 09:10:00,68.5,66.4,29.70,ESE,121,4.0,11.0,93,0.00,,,0.38,meteohub,2013-06-26 14:10:00,
2013-06-26 09:15:00,68.7,66.6,29.70,SSE,149,9.0,11.0,93,0.00,,,0.38,meteohub,2013-06-26 14:15:00,
2013-06-26 09:20:00,69.4,67.3,29.70,SSE,161,6.0,12.0,93,0.00,,,0.38,meteohub,2013-06-26 14:20:00,
2013-06-26 09:25:00,70.0,66.9,29.70,SE,145,9.0,12.0,90,0.00,,,0.38,meteohub,2013-06-26 14:25:00,
2013-06-26 09:30:00,70.2,67.1,29.70,SE,141,6.0,12.0,90,0.00,,,0.38,meteohub,2013-06-26 14:30:00,
2013-06-26 09:35:00,70.3,66.9,29.70,SSE,148,7.0,12.0,89,0.00,,,0.38,meteohub,2013-06-26 14:35:00,
2013-06-26 09:40:00,71.2,67.8,29.70,South,175,5.0,11.0,89,0.00,,,0.38,meteohub,2013-06-26 14:40:00,
2013-06-26 09:45:00,71.4,67.3,29.70,SE,144,8.0,9.0,87,0.00,,,0.38,meteohub,2013-06-26 14:45:00,
2013-06-26 09:50:00,71.8,68.0,29.70,SW,227,3.0,10.0,88,0.00,,,0.38,meteohub,2013-06-26 14:50:00,
2013-06-26 09:55:00,72.3,68.5,29.70,SW,216,9.0,10.0,88,0.00,,,0.38,meteohub,2013-06-26 14:55:00,
2013-06-26 10:00:00,72.7,68.2,29.70,SSW,198,7.0,10.0,86,0.00,,,0.38,meteohub,2013-06-26 15:00:00,
2013-06-26 10:05:00,72.9,68.0,29.70,SW,220,7.0,10.0,85,0.00,,,0.38,meteohub,2013-06-26 15:05:00,
2013-06-26 10:10:00,73.0,68.2,29.70,SSE,168,5.0,12.0,85,0.00,,,0.38,meteohub,2013-06-26 15:10:00,
2013-06-26 10:15:00,73.2,69.1,29.71,SSW,212,4.0,12.0,87,0.00,,,0.38,meteohub,2013-06-26 15:15:00,
2013-06-26 10:20:00,73.2,68.2,29.71,SW,222,7.0,12.0,84,0.00,,,0.38,meteohub,2013-06-26 15:20:00,
2013-06-26 10:25:00,73.0,67.6,29.71,SSW,202,10.0,14.0,83,0.00,,,0.38,meteohub,2013-06-26 15:25:00,
2013-06-26 10:30:00,72.9,68.0,29.71,SSW,203,5.0,14.0,85,0.00,,,0.38,meteohub,2013-06-26 15:30:00,
2013-06-26 10:35:00,72.9,67.8,29.71,SW,221,9.0,14.0,84,0.00,,,0.38,meteohub,2013-06-26 15:35:00,
2013-06-26 10:40:00,72.9,67.8,29.71,SE,146,6.0,14.0,84,0.00,,,0.38,meteohub,2013-06-26 15:40:00,
2013-06-26 10:45:00,73.2,68.7,29.72,SSW,212,1.0,14.0,86,0.00,,,0.38,meteohub,2013-06-26 15:45:00,
2013-06-26 10:50:00,73.6,68.2,29.72,SE,144,7.0,14.0,83,0.00,,,0.38,meteohub,2013-06-26 15:50:00,
2013-06-26 10:55:00,73.6,68.4,29.73,WSW,243,4.0,11.0,84,0.00,,,0.38,meteohub,2013-06-26 15:55:00,
2013-06-26 11:01:00,73.8,68.0,29.73,SE,134,4.0,11.0,82,0.00,,,0.38,meteohub,2013-06-26 16:01:00,
2013-06-26 11:06:00,73.9,68.7,29.73,SSE,156,7.0,11.0,84,0.00,,,0.38,meteohub,2013-06-26 16:06:00,
2013-06-26 11:11:00,73.8,68.0,29.73,SSE,148,11.0,14.0,82,0.00,,,0.38,meteohub,2013-06-26 16:11:00,
2013-06-26 11:16:00,73.8,68.5,29.72,SE,131,10.0,15.0,84,0.00,,,0.38,meteohub,2013-06-26 16:16:00,
2013-06-26 11:21:00,73.8,68.0,29.72,SE,137,7.0,15.0,82,0.00,,,0.38,meteohub,2013-06-26 16:21:00,
2013-06-26 11:26:00,73.9,68.7,29.72,SSE,147,8.0,13.0,84,0.00,,,0.38,meteohub,2013-06-26 16:26:00,
2013-06-26 11:31:00,73.9,68.4,29.72,SE,135,11.0,13.0,83,0.00,,,0.38,meteohub,2013-06-26 16:31:00,
2013-06-26 11:36:00,73.6,68.2,29.72,SSE,154,11.0,15.0,83,0.00,,,0.38,meteohub,2013-06-26 16:36:00,
2013-06-26 11:41:00,73.8,68.9,29.72,SSE,158,8.0,15.0,85,0.00,,,0.38,meteohub,2013-06-26 16:41:00,
2013-06-26 11:46:00,73.9,68.7,29.72,SE,138,10.0,15.0,84,0.00,,,0.38,meteohub,2013-06-26 16:46:00,
2013-06-26 11:51:00,74.1,69.3,29.72,South,185,5.0,14.0,85,0.00,,,0.38,meteohub,2013-06-26 16:51:00,
2013-06-26 11:56:00,74.7,69.8,29.71,SSE,165,14.0,14.0,85,0.00,,,0.38,meteohub,2013-06-26 16:56:00,
2013-06-26 12:01:00,74.5,70.0,29.71,South,173,7.0,18.0,86,0.00,,,0.38,meteohub,2013-06-26 17:01:00,
2013-06-26 12:06:00,74.8,69.6,29.71,SSE,168,15.0,18.0,84,0.00,,,0.38,meteohub,2013-06-26 17:06:00,
2013-06-26 12:11:00,74.5,69.6,29.72,SSW,201,13.0,18.0,85,0.00,,,0.38,meteohub,2013-06-26 17:11:00,
2013-06-26 12:16:00,74.5,69.3,29.72,SSE,165,9.0,18.0,84,0.00,,,0.38,meteohub,2013-06-26 17:16:00,
2013-06-26 12:21:00,74.3,69.4,29.72,South,184,11.0,18.0,85,0.00,,,0.38,meteohub,2013-06-26 17:21:00,
2013-06-26 12:26:00,74.5,69.6,29.72,South,179,6.0,15.0,85,0.00,,,0.38,meteohub,2013-06-26 17:26:00,
2013-06-26 12:31:00,74.7,69.8,29.72,SSE,161,8.0,14.0,85,0.00,,,0.38,meteohub,2013-06-26 17:31:00,
2013-06-26 12:36:00,73.9,69.1,29.72,SE,138,11.0,12.0,85,0.00,,,0.38,meteohub,2013-06-26 17:36:00,
2013-06-26 12:41:00,73.9,69.1,29.73,SE,145,13.0,16.0,85,0.00,,,0.38,meteohub,2013-06-26 17:41:00,
2013-06-26 12:46:00,73.6,68.7,29.72,SE,131,14.0,17.0,85,0.00,,,0.38,meteohub,2013-06-26 17:46:00,
2013-06-26 12:51:00,73.2,68.2,29.72,SSE,152,12.0,17.0,84,0.00,,,0.38,meteohub,2013-06-26 17:51:00,
2013-06-26 12:56:00,73.4,68.5,29.73,SSE,154,14.0,17.0,85,0.00,,,0.38,meteohub,2013-06-26 17:56:00,
2013-06-26 13:01:00,73.2,68.2,29.73,SSE,150,8.0,16.0,84,0.00,,,0.38,meteohub,2013-06-26 18:01:00,
2013-06-26 13:06:00,73.6,68.2,29.73,SW,225,6.0,15.0,83,0.00,,,0.38,meteohub,2013-06-26 18:06:00,
2013-06-26 13:11:00,74.5,68.9,29.74,SSE,150,8.0,15.0,83,0.00,,,0.38,meteohub,2013-06-26 18:11:00,
2013-06-26 13:16:00,75.4,69.1,29.73,South,177,5.0,11.0,81,0.00,,,0.38,meteohub,2013-06-26 18:16:00,
2013-06-26 13:21:00,76.3,68.9,29.73,WSW,246,4.0,11.0,78,0.00,,,0.38,meteohub,2013-06-26 18:21:00,
2013-06-26 13:26:00,75.7,68.4,29.73,SE,135,7.0,10.0,78,0.00,,,0.38,meteohub,2013-06-26 18:26:00,
2013-06-26 13:31:00,76.3,68.9,29.73,SSW,212,8.0,10.0,78,0.00,,,0.38,meteohub,2013-06-26 18:31:00,
2013-06-26 13:36:00,76.6,68.9,29.73,SSE,164,4.0,12.0,77,0.00,,,0.38,meteohub,2013-06-26 18:36:00,
2013-06-26 13:41:00,77.0,70.3,29.73,WSW,256,2.0,12.0,80,0.00,,,0.38,meteohub,2013-06-26 18:41:00,
2013-06-26 13:46:00,77.4,70.3,29.73,WSW,243,4.0,12.0,79,0.00,,,0.38,meteohub,2013-06-26 18:46:00,
2013-06-26 13:51:00,77.7,68.7,29.73,SSW,203,7.0,10.0,74,0.00,,,0.38,meteohub,2013-06-26 18:51:00,
2013-06-26 13:56:00,78.1,70.7,29.73,SW,232,4.0,10.0,78,0.00,,,0.38,meteohub,2013-06-26 18:56:00,
2013-06-26 14:01:00,78.4,69.1,29.72,SSE,161,3.0,10.0,73,0.00,,,0.38,meteohub,2013-06-26 19:01:00,
2013-06-26 14:06:00,78.3,69.6,29.72,SSE,151,4.0,10.0,75,0.00,,,0.38,meteohub,2013-06-26 19:06:00,
2013-06-26 14:11:00,78.4,68.7,29.71,SW,225,6.0,9.0,72,0.00,,,0.38,meteohub,2013-06-26 19:11:00,
2013-06-26 14:16:00,78.3,68.9,29.71,SW,225,7.0,9.0,73,0.00,,,0.38,meteohub,2013-06-26 19:16:00,
2013-06-26 14:21:00,78.3,68.9,29.71,WSW,251,6.0,9.0,73,0.00,,,0.38,meteohub,2013-06-26 19:21:00,
2013-06-26 14:26:00,78.1,69.1,29.71,SW,234,3.0,9.0,74,0.00,,,0.38,meteohub,2013-06-26 19:26:00,
2013-06-26 14:31:00,78.4,68.7,29.71,SW,216,5.0,9.0,72,0.00,,,0.38,meteohub,2013-06-26 19:31:00,
2013-06-26 14:36:00,78.4,68.7,29.71,SSW,208,4.0,9.0,72,0.00,,,0.38,meteohub,2013-06-26 19:36:00,
2013-06-26 14:41:00,78.8,68.5,29.71,South,177,5.0,9.0,71,0.00,,,0.38,meteohub,2013-06-26 19:41:00,
2013-06-26 14:47:00,78.6,68.4,29.71,SSW,212,0.0,8.0,71,0.00,,,0.38,meteohub,2013-06-26 19:47:00,
2013-06-26 14:52:00,78.4,68.2,29.72,SW,235,2.0,6.0,71,0.00,,,0.38,meteohub,2013-06-26 19:52:00,
2013-06-26 14:57:00,78.4,68.7,29.72,West,268,1.0,6.0,72,0.00,,,0.38,meteohub,2013-06-26 19:57:00,
2013-06-26 15:02:00,79.0,68.7,29.71,SSW,211,0.0,5.0,71,0.00,,,0.38,meteohub,2013-06-26 20:02:00,
2013-06-26 15:07:00,79.0,68.7,29.71,South,174,3.0,7.0,71,0.00,,,0.38,meteohub,2013-06-26 20:07:00,
2013-06-26 15:12:00,79.2,68.2,29.71,NW,318,0.0,7.0,69,0.00,,,0.38,meteohub,2013-06-26 20:12:00,
2013-06-26 15:17:00,79.5,68.5,29.71,WSW,240,5.0,6.0,69,0.00,,,0.38,meteohub,2013-06-26 20:17:00,
2013-06-26 15:22:00,79.7,68.5,29.71,SE,135,4.0,6.0,69,0.00,,,0.38,meteohub,2013-06-26 20:22:00,
2013-06-26 15:26:00,79.5,70.5,29.71,SSW,207,4.0,6.0,74,0.00,,,0.38,meteohub,2013-06-26 20:26:00,
2013-06-26 15:32:00,79.9,69.6,29.71,South,185,2.0,5.0,71,0.00,,,0.38,meteohub,2013-06-26 20:32:00,
2013-06-26 15:37:00,79.7,70.3,29.71,WSW,251,1.0,5.0,73,0.00,,,0.38,meteohub,2013-06-26 20:37:00,
2013-06-26 15:42:00,80.4,69.3,29.71,WNW,287,1.0,6.0,69,0.00,,,0.38,meteohub,2013-06-26 20:42:00,
2013-06-26 15:47:00,81.0,69.4,29.71,NW,308,4.0,6.0,68,0.00,,,0.38,meteohub,2013-06-26 20:47:00,
2013-06-26 15:52:00,80.6,68.2,29.71,NW,308,2.0,5.0,66,0.00,,,0.38,meteohub,2013-06-26 20:52:00,
2013-06-26 15:57:00,80.8,68.7,29.71,NW,310,4.0,6.0,67,0.00,,,0.38,meteohub,2013-06-26 20:57:00,
2013-06-26 16:02:00,80.2,68.7,29.71,WNW,290,3.0,6.0,68,0.00,,,0.38,meteohub,2013-06-26 21:02:00,
2013-06-26 16:07:00,80.4,69.3,29.71,NW,305,5.0,9.0,69,0.00,,,0.38,meteohub,2013-06-26 21:07:00,
2013-06-26 16:12:00,80.4,68.9,29.71,NW,305,5.0,9.0,68,0.00,,,0.38,meteohub,2013-06-26 21:12:00,
2013-06-26 16:17:00,80.8,69.3,29.71,NW,322,5.0,9.0,68,0.00,,,0.38,meteohub,2013-06-26 21:17:00,
2013-06-26 16:22:00,81.0,68.9,29.71,WSW,237,4.0,8.0,67,0.00,,,0.38,meteohub,2013-06-26 21:22:00,
2013-06-26 16:27:00,80.8,68.7,29.71,West,275,3.0,6.0,67,0.00,,,0.38,meteohub,2013-06-26 21:27:00,
2013-06-26 16:32:00,80.6,69.1,29.71,NW,313,3.0,6.0,68,0.00,,,0.38,meteohub,2013-06-26 21:32:00,
2013-06-26 16:37:00,81.0,69.8,29.71,West,271,6.0,6.0,69,0.00,,,0.38,meteohub,2013-06-26 21:37:00,
2013-06-26 16:42:00,80.8,69.3,29.71,West,281,7.0,8.0,68,0.00,,,0.38,meteohub,2013-06-26 21:42:00,
2013-06-26 16:47:00,80.8,68.7,29.71,WNW,295,5.0,8.0,67,0.00,,,0.38,meteohub,2013-06-26 21:47:00,
2013-06-26 16:52:00,81.0,69.4,29.71,West,275,4.0,8.0,68,0.00,,,0.38,meteohub,2013-06-26 21:52:00,
2013-06-26 16:57:00,81.0,69.4,29.71,NW,307,2.0,7.0,68,0.00,,,0.38,meteohub,2013-06-26 21:57:00,
2013-06-26 17:02:00,81.0,69.4,29.71,WNW,303,3.0,10.0,68,0.00,,,0.38,meteohub,2013-06-26 22:02:00,
2013-06-26 17:07:00,80.8,69.6,29.70,NW,306,5.0,10.0,69,0.00,,,0.38,meteohub,2013-06-26 22:07:00,
2013-06-26 17:12:00,80.4,69.3,29.70,NW,312,3.0,10.0,69,0.00,,,0.38,meteohub,2013-06-26 22:12:00,
2013-06-26 17:17:00,80.4,69.3,29.70,West,279,4.0,10.0,69,0.00,,,0.38,meteohub,2013-06-26 22:17:00,
2013-06-26 17:22:00,80.4,69.3,29.70,NW,308,5.0,8.0,69,0.00,,,0.38,meteohub,2013-06-26 22:22:00,
2013-06-26 17:27:00,81.1,71.2,29.70,WNW,292,2.0,8.0,72,0.00,,,0.38,meteohub,2013-06-26 22:27:00,
2013-06-26 17:32:00,81.5,70.3,29.69,WNW,301,6.0,8.0,69,0.00,,,0.38,meteohub,2013-06-26 22:32:00,
2013-06-26 17:37:00,81.1,71.2,29.68,WNW,296,3.0,7.0,72,0.00,,,0.38,meteohub,2013-06-26 22:37:00,
2013-06-26 17:42:00,81.0,70.7,29.68,WSW,249,2.0,7.0,71,0.00,,,0.38,meteohub,2013-06-26 22:42:00,
2013-06-26 17:47:00,80.1,69.4,29.68,WSW,257,9.0,9.0,70,0.00,,,0.38,meteohub,2013-06-26 22:47:00,
2013-06-26 17:52:00,79.5,69.3,29.66,West,268,4.0,10.0,71,0.00,,,0.38,meteohub,2013-06-26 22:52:00,
2013-06-26 17:57:00,79.5,69.6,29.66,West,264,3.0,10.0,72,0.00,,,0.38,meteohub,2013-06-26 22:57:00,
2013-06-26 18:02:00,79.7,70.3,29.67,West,260,4.0,9.0,73,0.00,,,0.38,meteohub,2013-06-26 23:02:00,
2013-06-26 18:07:00,80.2,70.9,29.68,WNW,284,3.0,5.0,73,0.00,,,0.38,meteohub,2013-06-26 23:07:00,
2013-06-26 18:12:00,80.4,70.5,29.69,NW,310,1.0,5.0,72,0.00,,,0.38,meteohub,2013-06-26 23:12:00,
2013-06-26 18:17:00,80.1,70.7,29.70,NW,317,7.0,7.0,73,0.00,,,0.38,meteohub,2013-06-26 23:17:00,
2013-06-26 18:22:00,79.7,70.3,29.70,NW,309,5.0,10.0,73,0.00,,,0.38,meteohub,2013-06-26 23:22:00,
2013-06-26 18:27:00,79.5,70.5,29.69,West,278,5.0,10.0,74,0.00,,,0.38,meteohub,2013-06-26 23:27:00,
2013-06-26 18:32:00,79.2,70.5,29.70,WNW,292,3.0,10.0,75,0.00,,,0.38,meteohub,2013-06-26 23:32:00,
2013-06-26 18:37:00,78.8,71.1,29.70,WNW,283,2.0,8.0,77,0.00,,,0.38,meteohub,2013-06-26 23:37:00,
2013-06-26 18:42:00,78.6,71.2,29.70,West,261,3.0,6.0,78,0.00,,,0.38,meteohub,2013-06-26 23:42:00,
2013-06-26 18:47:00,78.4,70.7,29.69,WSW,248,1.0,6.0,77,0.00,,,0.38,meteohub,2013-06-26 23:47:00,
2013-06-26 18:52:00,78.6,71.2,29.69,West,260,1.0,6.0,78,0.00,,,0.38,meteohub,2013-06-26 23:52:00,
2013-06-26 18:57:00,78.6,71.6,29.69,West,261,2.0,3.0,79,0.00,,,0.38,meteohub,2013-06-26 23:57:00,
2013-06-26 19:02:00,79.0,72.0,29.69,West,268,2.0,3.0,79,0.00,,,0.38,meteohub,2013-06-27 00:02:00,
2013-06-26 19:07:00,79.3,71.1,29.69,West,274,1.0,3.0,76,0.00,,,0.00,meteohub,2013-06-27 00:07:00,
2013-06-26 19:12:00,79.7,71.4,29.69,WNW,291,1.0,3.0,76,0.00,,,0.00,meteohub,2013-06-27 00:12:00,
2013-06-26 19:17:00,79.5,71.6,29.70,WNW,294,2.0,3.0,77,0.00,,,0.00,meteohub,2013-06-27 00:17:00,
2013-06-26 19:22:00,79.2,71.2,29.70,WSW,251,4.0,5.0,77,0.00,,,0.00,meteohub,2013-06-27 00:22:00,
2013-06-26 19:27:00,78.8,71.8,29.69,WSW,238,4.0,5.0,79,0.00,,,0.00,meteohub,2013-06-27 00:27:00,
2013-06-26 19:32:00,78.3,71.6,29.70,West,265,4.0,6.0,80,0.00,,,0.00,meteohub,2013-06-27 00:32:00,
2013-06-26 19:37:00,77.9,71.6,29.70,West,270,2.0,6.0,81,0.00,,,0.00,meteohub,2013-06-27 00:37:00,
2013-06-26 19:42:00,77.5,71.6,29.69,West,272,2.0,6.0,82,0.00,,,0.00,meteohub,2013-06-27 00:42:00,
2013-06-26 19:47:00,77.2,71.2,29.69,West,272,1.0,5.0,82,0.00,,,0.00,meteohub,2013-06-27 00:47:00,
2013-06-26 19:52:00,77.0,71.4,29.69,West,270,1.0,3.0,83,0.00,,,0.00,meteohub,2013-06-27 00:52:00,
2013-06-26 19:57:00,76.6,71.4,29.69,West,270,1.0,2.0,84,0.00,,,0.00,meteohub,2013-06-27 00:57:00,
2013-06-26 20:02:00,76.3,71.4,29.69,West,272,2.0,2.0,85,0.00,,,0.00,meteohub,2013-06-27 01:02:00,
2013-06-26 20:07:00,76.1,70.9,29.69,West,267,1.0,3.0,84,0.00,,,0.00,meteohub,2013-06-27 01:07:00,
2013-06-26 20:12:00,76.1,70.9,29.69,West,266,1.0,3.0,84,0.00,,,0.00,meteohub,2013-06-27 01:12:00,
2013-06-26 20:17:00,76.1,71.2,29.69,West,267,2.0,3.0,85,0.00,,,0.00,meteohub,2013-06-27 01:17:00,
2013-06-26 20:22:00,75.9,71.4,29.68,West,261,2.0,3.0,86,0.00,,,0.00,meteohub,2013-06-27 01:22:00,
2013-06-26 20:28:00,75.7,70.9,29.68,WSW,239,1.0,2.0,85,0.00,,,0.00,meteohub,2013-06-27 01:28:00,
2013-06-26 20:32:00,75.7,71.2,29.68,WSW,237,1.0,3.0,86,0.00,,,0.00,meteohub,2013-06-27 01:32:00,
2013-06-26 20:38:00,75.6,71.1,29.69,WSW,243,0.0,3.0,86,0.00,,,0.00,meteohub,2013-06-27 01:38:00,
2013-06-26 20:43:00,75.4,70.9,29.69,WSW,243,0.0,3.0,86,0.00,,,0.00,meteohub,2013-06-27 01:43:00,
2013-06-26 20:48:00,75.4,70.9,29.69,WSW,243,0.0,2.0,86,0.00,,,0.00,meteohub,2013-06-27 01:48:00,
2013-06-26 20:53:00,75.2,71.1,29.70,WSW,254,1.0,1.0,87,0.00,,,0.00,meteohub,2013-06-27 01:53:00,
2013-06-26 20:58:00,75.0,71.2,29.70,West,260,0.0,2.0,88,0.00,,,0.00,meteohub,2013-06-27 01:58:00,
2013-06-26 21:03:00,74.7,70.9,29.71,West,261,0.0,2.0,88,0.00,,,0.00,meteohub,2013-06-27 02:03:00,
2013-06-26 21:08:00,74.3,70.9,29.71,West,261,0.0,2.0,89,0.00,,,0.00,meteohub,2013-06-27 02:08:00,
2013-06-26 21:13:00,74.3,70.9,29.70,West,261,0.0,2.0,89,0.00,,,0.00,meteohub,2013-06-27 02:13:00,
2013-06-26 21:18:00,74.3,70.9,29.71,West,261,0.0,1.0,89,0.00,,,0.00,meteohub,2013-06-27 02:18:00,
2013-06-26 21:23:00,74.1,71.1,29.71,West,261,0.0,1.0,90,0.00,,,0.00,meteohub,2013-06-27 02:23:00,
2013-06-26 21:28:00,74.1,71.1,29.71,West,261,0.0,1.0,90,0.00,,,0.00,meteohub,2013-06-27 02:28:00,
2013-06-26 21:33:00,73.9,70.9,29.72,West,261,0.0,1.0,90,0.00,,,0.00,meteohub,2013-06-27 02:33:00,
2013-06-26 21:38:00,73.9,70.9,29.72,West,261,0.0,1.0,90,0.00,,,0.00,meteohub,2013-06-27 02:38:00,
2013-06-26 21:43:00,74.1,71.1,29.72,West,261,1.0,0.0,90,0.00,,,0.00,meteohub,2013-06-27 02:43:00,
2013-06-26 21:48:00,74.1,71.1,29.72,West,261,0.0,1.0,90,0.00,,,0.00,meteohub,2013-06-27 02:48:00,
2013-06-26 21:53:00,73.9,70.5,29.72,West,261,0.0,1.0,89,0.00,,,0.00,meteohub,2013-06-27 02:53:00,
2013-06-26 21:58:00,73.6,70.7,29.73,West,261,0.0,1.0,91,0.00,,,0.00,meteohub,2013-06-27 02:58:00,
2013-06-26 22:03:00,73.0,70.5,29.73,West,261,0.0,1.0,92,0.00,,,0.00,meteohub,2013-06-27 03:03:00,
2013-06-26 22:08:00,72.7,70.2,29.72,West,261,0.0,1.0,92,0.00,,,0.00,meteohub,2013-06-27 03:08:00,
2013-06-26 22:13:00,72.7,70.5,29.72,West,261,0.0,1.0,93,0.00,,,0.00,meteohub,2013-06-27 03:13:00,
2013-06-26 22:18:00,72.3,70.2,29.73,West,261,0.0,1.0,93,0.00,,,0.00,meteohub,2013-06-27 03:18:00,
2013-06-26 22:23:00,72.3,70.2,29.73,West,261,0.0,0.0,93,0.00,,,0.00,meteohub,2013-06-27 03:23:00,
2013-06-26 22:28:00,72.5,70.3,29.73,West,261,0.0,0.0,93,0.00,,,0.00,meteohub,2013-06-27 03:28:00,
2013-06-26 22:33:00,72.7,70.5,29.73,West,261,0.0,1.0,93,0.00,,,0.00,meteohub,2013-06-27 03:33:00,
2013-06-26 22:38:00,72.7,70.2,29.73,West,261,0.0,1.0,92,0.00,,,0.00,meteohub,2013-06-27 03:38:00,
2013-06-26 22:43:00,72.7,70.2,29.73,West,261,0.0,1.0,92,0.00,,,0.00,meteohub,2013-06-27 03:43:00,
2013-06-26 22:48:00,72.7,70.5,29.73,West,261,0.0,0.0,93,0.00,,,0.00,meteohub,2013-06-27 03:48:00,
2013-06-26 22:53:00,72.7,70.2,29.73,West,261,0.0,0.0,92,0.00,,,0.00,meteohub,2013-06-27 03:53:00,
2013-06-26 22:58:00,72.1,69.6,29.73,West,261,0.0,0.0,92,0.00,,,0.00,meteohub,2013-06-27 03:58:00,
2013-06-26 23:01:00,72.0,69.8,29.73,West,261,0.0,1.0,93,0.00,,,0.00,meteohub,2013-06-27 04:01:00,
2013-06-26 23:02:00,71.8,69.6,29.73,West,261,1.0,1.0,93,0.00,,,0.00,meteohub,2013-06-27 04:02:00,
2013-06-26 23:07:00,71.2,69.4,29.73,West,261,0.0,1.0,94,0.00,,,0.00,meteohub,2013-06-27 04:07:00,
2013-06-26 23:12:00,71.1,69.3,29.73,West,261,0.0,1.0,94,0.00,,,0.00,meteohub,2013-06-27 04:12:00,
2013-06-26 23:17:00,71.2,69.8,29.73,West,261,0.0,1.0,95,0.00,,,0.00,meteohub,2013-06-27 04:17:00,
2013-06-26 23:22:00,71.4,70.0,29.73,West,261,0.0,2.0,95,0.00,,,0.00,meteohub,2013-06-27 04:22:00,
2013-06-26 23:27:00,71.4,69.6,29.73,West,261,0.0,2.0,94,0.00,,,0.00,meteohub,2013-06-27 04:27:00,
2013-06-26 23:32:00,71.2,69.4,29.73,West,261,0.0,2.0,94,0.00,,,0.00,meteohub,2013-06-27 04:32:00,
2013-06-26 23:37:00,71.1,69.3,29.73,West,261,0.0,1.0,94,0.00,,,0.00,meteohub,2013-06-27 04:37:00,
2013-06-26 23:42:00,70.9,69.4,29.73,West,261,0.0,1.0,95,0.00,,,0.00,meteohub,2013-06-27 04:42:00,
2013-06-26 23:47:00,70.7,69.3,29.73,West,261,0.0,1.0,95,0.00,,,0.00,meteohub,2013-06-27 04:47:00,
2013-06-26 23:52:00,70.5,69.1,29.73,West,261,0.0,0.0,95,0.00,,,0.00,meteohub,2013-06-27 04:52:00,
2013-06-26 23:57:00,70.3,68.9,29.73,West,261,0.0,0.0,95,0.00,,,0.00,meteohub,2013-06-27 04:57:00,